sensor_id;sensor_type;location;lat;lon;timestamp;pressure;altitude;pressure_sealevel;temperature;humidity
27980;BME280;15315;50.836;4.430;2023-12-14T00:06:30;100343.91;;;12.61;100.00
27980;BME280;15315;50.836;4.430;2023-12-14T00:16:31;100347.78;;;12.36;100.00
27980;BME280;15315;50.836;4.430;2023-12-14T00:26:31;100365.28;;;12.64;100.00
27980;BME280;15315;50.836;4.430;2023-12-14T00:36:32;100389.78;;;12.63;98.10
27980;BME280;15315;50.836;4.430;2023-12-14T00:46:32;100410.75;;;13.23;94.79
27980;BME280;15315;50.836;4.430;2023-12-14T00:56:33;100424.13;;;12.83;96.50
27980;BME280;15315;50.836;4.430;2023-12-14T01:06:33;100448.50;;;12.72;95.86
27980;BME280;15315;50.836;4.430;2023-12-14T01:16:34;100467.97;;;12.55;96.92
27980;BME280;15315;50.836;4.430;2023-12-14T01:26:34;100488.59;;;12.45;97.78
27980;BME280;15315;50.836;4.430;2023-12-14T01:36:34;100513.88;;;12.77;94.60
27980;BME280;15315;50.836;4.430;2023-12-14T01:46:35;100532.94;;;13.18;92.64
27980;BME280;15315;50.836;4.430;2023-12-14T01:56:35;100561.84;;;12.86;92.56
27980;BME280;15315;50.836;4.430;2023-12-14T02:06:36;100586.63;;;11.56;99.09
27980;BME280;15315;50.836;4.430;2023-12-14T02:16:36;100613.03;;;11.17;100.00
27980;BME280;15315;50.836;4.430;2023-12-14T02:26:39;100610.88;;;12.81;88.18
27980;BME280;15315;50.836;4.430;2023-12-14T02:36:39;100622.00;;;11.64;95.01
27980;BME280;15315;50.836;4.430;2023-12-14T02:46:39;100636.28;;;12.23;92.97
27980;BME280;15315;50.836;4.430;2023-12-14T02:56:40;100659.03;;;12.43;89.74
27980;BME280;15315;50.836;4.430;2023-12-14T03:06:40;100669.66;;;11.77;89.91
27980;BME280;15315;50.836;4.430;2023-12-14T03:16:40;100676.38;;;12.52;86.57
27980;BME280;15315;50.836;4.430;2023-12-14T03:26:41;100683.03;;;12.02;87.00
27980;BME280;15315;50.836;4.430;2023-12-14T03:36:41;100711.91;;;11.41;89.26
27980;BME280;15315;50.836;4.430;2023-12-14T03:46:41;100722.97;;;10.89;93.92
27980;BME280;15315;50.836;4.430;2023-12-14T03:56:42;100733.72;;;11.02;92.02
27980;BME280;15315;50.836;4.430;2023-12-14T04:06:42;100753.31;;;11.29;89.05
27980;BME280;15315;50.836;4.430;2023-12-14T04:16:43;100787.56;;;10.66;89.93
27980;BME280;15315;50.836;4.430;2023-12-14T04:26:43;100812.06;;;9.42;99.13
27980;BME280;15315;50.836;4.430;2023-12-14T04:36:47;100837.00;;;10.13;95.81
27980;BME280;15315;50.836;4.430;2023-12-14T04:46:48;100862.88;;;10.15;89.19
27980;BME280;15315;50.836;4.430;2023-12-14T04:56:48;100864.00;;;10.65;87.16
27980;BME280;15315;50.836;4.430;2023-12-14T05:06:49;100896.03;;;10.16;86.34
27980;BME280;15315;50.836;4.430;2023-12-14T05:16:49;100927.47;;;10.03;88.75
27980;BME280;15315;50.836;4.430;2023-12-14T05:26:50;100938.31;;;11.08;81.49
27980;BME280;15315;50.836;4.430;2023-12-14T05:36:50;100967.75;;;9.48;87.87
27980;BME280;15315;50.836;4.430;2023-12-14T05:46:51;100980.75;;;9.69;87.56
27980;BME280;15315;50.836;4.430;2023-12-14T05:56:51;100991.78;;;11.41;78.94
27980;BME280;15315;50.836;4.430;2023-12-14T06:06:52;101009.78;;;11.80;75.19
27980;BME280;15315;50.836;4.430;2023-12-14T06:16:53;101035.34;;;11.49;75.99
27980;BME280;15315;50.836;4.430;2023-12-14T06:26:53;101054.41;;;11.85;74.51
27980;BME280;15315;50.836;4.430;2023-12-14T06:36:53;101070.59;;;10.94;74.89
27980;BME280;15315;50.836;4.430;2023-12-14T06:46:54;101101.69;;;9.58;80.80
27980;BME280;15315;50.836;4.430;2023-12-14T06:56:55;101102.69;;;11.11;76.96
27980;BME280;15315;50.836;4.430;2023-12-14T07:06:55;101123.81;;;10.49;75.63
27980;BME280;15315;50.836;4.430;2023-12-14T07:16:56;101127.78;;;11.26;74.82
27980;BME280;15315;50.836;4.430;2023-12-14T07:26:56;101149.53;;;10.55;74.53
27980;BME280;15315;50.836;4.430;2023-12-14T07:36:56;101158.09;;;10.62;72.16
27980;BME280;15315;50.836;4.430;2023-12-14T07:47:00;101169.25;;;10.70;72.74
27980;BME280;15315;50.836;4.430;2023-12-14T07:57:00;101205.03;;;11.55;69.46
27980;BME280;15315;50.836;4.430;2023-12-14T08:07:01;101228.94;;;11.20;69.29
27980;BME280;15315;50.836;4.430;2023-12-14T08:17:01;101236.75;;;11.65;68.70
27980;BME280;15315;50.836;4.430;2023-12-14T08:27:02;101254.38;;;11.71;67.20
27980;BME280;15315;50.836;4.430;2023-12-14T08:37:02;101269.09;;;11.80;66.42
27980;BME280;15315;50.836;4.430;2023-12-14T08:47:03;101288.50;;;11.72;66.05
27980;BME280;15315;50.836;4.430;2023-12-14T08:57:04;101309.09;;;11.46;65.62
27980;BME280;15315;50.836;4.430;2023-12-14T09:07:05;101333.13;;;11.92;64.40
27980;BME280;15315;50.836;4.430;2023-12-14T09:17:05;101354.59;;;11.66;64.86
27980;BME280;15315;50.836;4.430;2023-12-14T09:27:06;101369.69;;;12.24;63.80
27980;BME280;15315;50.836;4.430;2023-12-14T09:37:06;101381.28;;;11.85;62.85
27980;BME280;15315;50.836;4.430;2023-12-14T09:47:06;101405.91;;;11.66;61.61
27980;BME280;15315;50.836;4.430;2023-12-14T09:57:08;101416.44;;;11.71;63.22
27980;BME280;15315;50.836;4.430;2023-12-14T10:07:09;101426.78;;;12.05;61.92
27980;BME280;15315;50.836;4.430;2023-12-14T10:17:21;101452.25;;;12.15;60.33
27980;BME280;15315;50.836;4.430;2023-12-14T10:27:24;101459.66;;;12.67;59.00
27980;BME280;15315;50.836;4.430;2023-12-14T10:37:25;101454.97;;;12.83;58.63
27980;BME280;15315;50.836;4.430;2023-12-14T10:47:26;101479.28;;;12.70;57.23
27980;BME280;15315;50.836;4.430;2023-12-14T10:57:28;101489.06;;;12.85;57.62
27980;BME280;15315;50.836;4.430;2023-12-14T11:07:53;101485.78;;;13.32;57.39
27980;BME280;15315;50.836;4.430;2023-12-14T11:28:12;101490.25;;;13.84;57.31
27980;BME280;15315;50.836;4.430;2023-12-14T11:38:13;101502.88;;;13.20;57.94
27980;BME280;15315;50.836;4.430;2023-12-14T11:48:13;101509.06;;;12.56;59.80
27980;BME280;15315;50.836;4.430;2023-12-14T11:58:15;101517.31;;;12.12;61.35
27980;BME280;15315;50.836;4.430;2023-12-14T12:08:18;101526.00;;;12.31;62.07
27980;BME280;15315;50.836;4.430;2023-12-14T12:18:19;101532.63;;;13.47;61.05
27980;BME280;15315;50.836;4.430;2023-12-14T12:28:19;101534.72;;;13.56;60.74
27980;BME280;15315;50.836;4.430;2023-12-14T12:38:20;101532.63;;;13.47;62.25
27980;BME280;15315;50.836;4.430;2023-12-14T12:48:20;101530.44;;;13.39;62.78
27980;BME280;15315;50.836;4.430;2023-12-14T12:58:20;101543.78;;;13.03;64.08
27980;BME280;15315;50.836;4.430;2023-12-14T13:08:21;101547.22;;;13.32;63.94
27980;BME280;15315;50.836;4.430;2023-12-14T13:18:22;101554.31;;;13.20;64.23
27980;BME280;15315;50.836;4.430;2023-12-14T13:28:23;101558.59;;;12.71;65.76
27980;BME280;15315;50.836;4.430;2023-12-14T13:38:23;101571.50;;;13.46;64.25
27980;BME280;15315;50.836;4.430;2023-12-14T13:48:24;101586.19;;;13.56;63.92
27980;BME280;15315;50.836;4.430;2023-12-14T13:58:25;101613.09;;;13.72;63.65
27980;BME280;15315;50.836;4.430;2023-12-14T14:08:25;101618.41;;;13.34;63.42
27980;BME280;15315;50.836;4.430;2023-12-14T14:18:26;101631.41;;;13.41;63.91
27980;BME280;15315;50.836;4.430;2023-12-14T14:28:26;101626.69;;;13.18;65.03
27980;BME280;15315;50.836;4.430;2023-12-14T14:38:26;101646.28;;;13.48;64.01
27980;BME280;15315;50.836;4.430;2023-12-14T14:48:27;101659.72;;;13.23;63.98
27980;BME280;15315;50.836;4.430;2023-12-14T14:58:27;101683.22;;;12.96;64.72
27980;BME280;15315;50.836;4.430;2023-12-14T15:08:27;101697.22;;;13.03;64.84
27980;BME280;15315;50.836;4.430;2023-12-14T15:18:28;101715.66;;;13.10;64.48
27980;BME280;15315;50.836;4.430;2023-12-14T15:28:28;101728.63;;;13.19;63.69
27980;BME280;15315;50.836;4.430;2023-12-14T15:38:29;101738.63;;;12.62;63.41
27980;BME280;15315;50.836;4.430;2023-12-14T15:48:29;101767.91;;;11.96;64.27
27980;BME280;15315;50.836;4.430;2023-12-14T15:58:30;101793.47;;;11.59;66.20
27980;BME280;15315;50.836;4.430;2023-12-14T16:08:30;101809.03;;;12.31;63.56
27980;BME280;15315;50.836;4.430;2023-12-14T16:18:31;101808.00;;;12.04;62.33
27980;BME280;15315;50.836;4.430;2023-12-14T16:28:31;101823.94;;;12.68;60.71
27980;BME280;15315;50.836;4.430;2023-12-14T16:38:31;101839.59;;;12.47;59.59
27980;BME280;15315;50.836;4.430;2023-12-14T16:48:32;101847.31;;;12.69;59.30
27980;BME280;15315;50.836;4.430;2023-12-14T16:58:32;101850.06;;;12.83;60.33
27980;BME280;15315;50.836;4.430;2023-12-14T17:08:35;101868.78;;;12.72;60.52
27980;BME280;15315;50.836;4.430;2023-12-14T17:18:35;101879.44;;;12.29;61.59
27980;BME280;15315;50.836;4.430;2023-12-14T17:28:36;101883.31;;;12.85;60.50
27980;BME280;15315;50.836;4.430;2023-12-14T17:38:36;101902.91;;;12.29;62.64
27980;BME280;15315;50.836;4.430;2023-12-14T17:48:37;101916.84;;;12.82;61.10
27980;BME280;15315;50.836;4.430;2023-12-14T17:58:37;101916.66;;;12.85;61.33
27980;BME280;15315;50.836;4.430;2023-12-14T18:08:37;101931.19;;;13.13;61.07
27980;BME280;15315;50.836;4.430;2023-12-14T18:18:38;101924.69;;;12.57;60.94
27980;BME280;15315;50.836;4.430;2023-12-14T18:28:38;101943.06;;;12.66;61.50
27980;BME280;15315;50.836;4.430;2023-12-14T18:38:42;101962.13;;;12.02;64.81
27980;BME280;15315;50.836;4.430;2023-12-14T18:48:42;101973.25;;;12.74;62.65
27980;BME280;15315;50.836;4.430;2023-12-14T18:58:42;101989.59;;;12.42;62.79
27980;BME280;15315;50.836;4.430;2023-12-14T19:08:43;101993.91;;;12.30;62.80
27980;BME280;15315;50.836;4.430;2023-12-14T19:18:43;101999.91;;;12.96;61.82
27980;BME280;15315;50.836;4.430;2023-12-14T19:28:44;102022.50;;;12.81;61.43
27980;BME280;15315;50.836;4.430;2023-12-14T19:38:46;102030.06;;;12.74;61.66
27980;BME280;15315;50.836;4.430;2023-12-14T19:48:49;102047.06;;;12.92;60.60
27980;BME280;15315;50.836;4.430;2023-12-14T19:58:50;102045.78;;;12.36;62.08
27980;BME280;15315;50.836;4.430;2023-12-14T20:08:50;102061.66;;;12.89;60.74
27980;BME280;15315;50.836;4.430;2023-12-14T20:18:51;102071.22;;;12.65;61.26
27980;BME280;15315;50.836;4.430;2023-12-14T20:28:51;102091.72;;;12.21;62.35
27980;BME280;15315;50.836;4.430;2023-12-14T20:38:53;102102.41;;;11.91;65.50
27980;BME280;15315;50.836;4.430;2023-12-14T20:48:53;102123.03;;;11.41;70.21
27980;BME280;15315;50.836;4.430;2023-12-14T20:58:53;102125.22;;;11.86;72.02
27980;BME280;15315;50.836;4.430;2023-12-14T21:08:54;102134.44;;;11.64;75.65
27980;BME280;15315;50.836;4.430;2023-12-14T21:18:54;102131.66;;;11.49;77.97
27980;BME280;15315;50.836;4.430;2023-12-14T21:28:55;102135.19;;;11.51;80.69
27980;BME280;15315;50.836;4.430;2023-12-14T21:38:55;102135.91;;;11.19;83.21
27980;BME280;15315;50.836;4.430;2023-12-14T21:48:56;102139.47;;;11.19;83.32
27980;BME280;15315;50.836;4.430;2023-12-14T21:58:56;102139.38;;;11.56;79.63
27980;BME280;15315;50.836;4.430;2023-12-14T22:08:57;102152.94;;;11.72;78.03
27980;BME280;15315;50.836;4.430;2023-12-14T22:18:57;102149.22;;;11.92;78.29
27980;BME280;15315;50.836;4.430;2023-12-14T22:28:57;102158.66;;;12.00;77.93
27980;BME280;15315;50.836;4.430;2023-12-14T22:38:58;102169.69;;;12.13;76.98
27980;BME280;15315;50.836;4.430;2023-12-14T22:48:58;102198.09;;;11.53;83.24
27980;BME280;15315;50.836;4.430;2023-12-14T22:58:59;102213.19;;;11.38;86.76
27980;BME280;15315;50.836;4.430;2023-12-14T23:09:00;102220.53;;;11.89;83.73
27980;BME280;15315;50.836;4.430;2023-12-14T23:19:01;102235.13;;;11.51;84.60
27980;BME280;15315;50.836;4.430;2023-12-14T23:29:02;102231.03;;;12.28;80.43
27980;BME280;15315;50.836;4.430;2023-12-14T23:39:02;102251.13;;;12.07;79.50
27980;BME280;15315;50.836;4.430;2023-12-14T23:49:03;102267.66;;;12.01;79.61
27980;BME280;15315;50.836;4.430;2023-12-14T23:59:03;102253.50;;;12.13;78.32
